createdAt,value
2022-11-03T00:02:07.737Z,14.27
2022-11-03T00:04:34.868Z,15.05
2022-11-03T00:07:01.664Z,14.85
2022-11-03T00:09:28.424Z,12.85
2022-11-03T00:11:55.465Z,13.57
2022-11-03T00:14:22.440Z,13.25
2022-11-03T00:16:49.658Z,12.35
2022-11-03T00:19:17.491Z,12.63
2022-11-03T00:21:45.221Z,14.43
2022-11-03T00:24:13.120Z,12.52
2022-11-03T00:26:40.295Z,11.60
2022-11-03T00:29:12.343Z,11.63
2022-11-03T00:31:41.316Z,11.05
2022-11-03T00:34:08.803Z,14.80
2022-11-03T00:36:38.592Z,11.40
2022-11-03T00:39:06.532Z,11.27
2022-11-03T00:41:33.703Z,11.98
2022-11-03T00:44:00.568Z,11.57
2022-11-03T00:46:27.924Z,11.57
2022-11-03T00:48:55.039Z,12.02
2022-11-03T00:51:24.859Z,11.55
2022-11-03T00:53:56.751Z,11.38
2022-11-03T00:56:35.400Z,11.30
2022-11-03T00:59:03.364Z,12.27
2022-11-03T01:01:47.593Z,11.07
2022-11-03T01:04:36.002Z,12.25
2022-11-03T01:07:05.859Z,11.23
2022-11-03T01:09:37.177Z,11.98
2022-11-03T01:12:09.368Z,11.25
2022-11-03T01:14:39.162Z,11.45
2022-11-03T01:17:18.309Z,11.82
2022-11-03T01:19:45.298Z,11.30
2022-11-03T01:22:13.158Z,12.02
2022-11-03T01:24:41.615Z,11.13
2022-11-03T01:27:14.044Z,11.52
2022-11-03T01:29:41.339Z,10.43
2022-11-03T01:32:08.954Z,11.55
2022-11-03T01:34:36.145Z,10.85
2022-11-03T01:37:03.650Z,12.35
2022-11-03T01:39:30.440Z,12.30
2022-11-03T01:41:57.568Z,10.85
2022-11-03T01:44:27.486Z,12.00
2022-11-03T01:47:03.058Z,11.65
2022-11-03T01:49:42.061Z,10.80
2022-11-03T01:52:36.762Z,11.55
2022-11-03T01:55:17.385Z,10.95
2022-11-03T01:58:08.310Z,10.10
2022-11-03T02:00:36.232Z,9.95
2022-11-03T02:03:04.202Z,10.82
2022-11-03T02:05:31.510Z,11.02
2022-11-03T02:08:24.460Z,9.63
2022-11-03T02:10:52.183Z,9.27
2022-11-03T02:13:22.356Z,9.75
2022-11-03T02:15:52.751Z,9.65
2022-11-03T02:18:24.719Z,9.60
2022-11-03T02:21:21.272Z,9.88
2022-11-03T02:23:59.086Z,9.40
2022-11-03T02:26:27.454Z,8.98
2022-11-03T02:28:54.641Z,9.35
2022-11-03T02:31:27.822Z,9.55
2022-11-03T02:33:57.197Z,9.27
2022-11-03T02:36:42.859Z,9.70
2022-11-03T02:39:16.564Z,9.13
2022-11-03T02:41:46.607Z,10.10
2022-11-03T02:44:18.981Z,9.80
2022-11-03T02:46:52.275Z,10.18
2022-11-03T02:49:18.994Z,8.48
2022-11-03T02:51:46.023Z,9.00
2022-11-03T02:54:29.953Z,8.93
2022-11-03T02:57:02.284Z,10.02
2022-11-03T02:59:37.817Z,10.40
2022-11-03T03:02:17.094Z,10.40
2022-11-03T03:04:49.794Z,9.65
2022-11-03T03:07:26.567Z,9.02
2022-11-03T03:10:10.932Z,9.27
2022-11-03T03:12:43.353Z,8.70
2022-11-03T03:15:10.376Z,10.75
2022-11-03T03:17:46.283Z,10.38
2022-11-03T03:20:18.856Z,10.18
2022-11-03T03:23:00.622Z,9.40
2022-11-03T03:25:30.458Z,9.88
2022-11-03T03:28:02.674Z,9.10
2022-11-03T03:30:32.346Z,9.65
2022-11-03T03:33:01.401Z,8.87
2022-11-03T03:35:30.942Z,10.05
2022-11-03T03:38:21.809Z,8.68
2022-11-03T03:40:52.733Z,8.80
2022-11-03T03:43:21.921Z,7.90
2022-11-03T03:45:52.698Z,7.78
2022-11-03T03:48:19.728Z,7.88
2022-11-03T03:50:49.691Z,7.70
2022-11-03T03:53:18.877Z,7.30
2022-11-03T03:55:51.482Z,7.13
2022-11-03T03:58:18.636Z,7.32
2022-11-03T04:00:46.154Z,7.07
2022-11-03T04:03:21.701Z,7.60
2022-11-03T04:05:49.167Z,6.45
2022-11-03T04:08:17.039Z,5.75
2022-11-03T04:11:03.633Z,5.68
2022-11-03T04:13:49.458Z,6.70
2022-11-03T04:16:35.806Z,6.72
2022-11-03T04:19:21.455Z,6.07
2022-11-03T04:22:07.002Z,6.32
2022-11-03T04:24:33.752Z,5.90
2022-11-03T04:27:24.997Z,6.22
2022-11-03T04:29:52.705Z,6.72
2022-11-03T04:32:19.779Z,5.53
2022-11-03T04:34:47.469Z,5.60
2022-11-03T04:37:16.049Z,6.22
2022-11-03T04:42:20.856Z,8.63
2022-11-03T04:44:49.246Z,6.45
2022-11-03T04:47:18.099Z,6.93
2022-11-03T04:49:47.275Z,6.90
2022-11-03T04:52:23.506Z,6.90
2022-11-03T04:54:53.630Z,7.97
2022-11-03T04:57:20.737Z,7.10
2022-11-03T04:59:50.630Z,7.80
2022-11-03T05:02:21.968Z,7.50
2022-11-03T05:04:48.953Z,8.57
2022-11-03T05:07:18.730Z,8.47
2022-11-03T05:09:45.724Z,8.20
2022-11-03T05:12:12.484Z,9.70
2022-11-03T05:14:39.526Z,8.17
2022-11-03T05:17:27.657Z,9.10
2022-11-03T05:20:03.641Z,9.40
2022-11-03T05:22:35.917Z,9.90
2022-11-03T05:25:30.765Z,10.10
2022-11-03T05:27:57.532Z,10.20
2022-11-03T05:30:24.823Z,10.37
2022-11-03T05:32:52.658Z,10.13
2022-11-03T05:35:23.053Z,10.13
2022-11-03T05:37:51.330Z,11.03
2022-11-03T05:40:26.222Z,10.57
2022-11-03T05:43:01.072Z,10.30
2022-11-03T05:45:33.648Z,10.27
2022-11-03T05:48:02.120Z,9.63
2022-11-03T05:50:33.389Z,9.63
2022-11-03T05:53:12.375Z,8.07
2022-11-03T05:58:20.005Z,7.38
2022-11-03T06:00:48.962Z,6.80
2022-11-03T06:03:30.851Z,7.70
2022-11-03T06:06:00.229Z,8.10
2022-11-03T06:08:33.979Z,7.03
2022-11-03T06:11:02.553Z,6.18
2022-11-03T06:13:36.659Z,6.03
2022-11-03T06:16:16.111Z,5.93
2022-11-03T06:18:42.853Z,5.75
2022-11-03T06:21:16.261Z,6.13
2022-11-03T06:23:43.381Z,6.35
2022-11-03T06:26:20.587Z,7.03
2022-11-03T06:28:49.254Z,7.07
2022-11-03T06:31:24.611Z,7.20
2022-11-03T06:33:52.718Z,7.50
2022-11-03T06:36:26.369Z,7.83
2022-11-03T06:38:56.736Z,8.77
2022-11-03T06:41:27.483Z,9.02
2022-11-03T06:43:54.742Z,9.05
2022-11-03T06:46:24.199Z,8.40
2022-11-03T06:51:25.823Z,9.73
2022-11-03T06:53:54.272Z,8.85
2022-11-03T06:56:36.940Z,6.55
2022-11-03T06:59:03.724Z,6.78
2022-11-03T07:01:35.388Z,6.05
2022-11-03T07:04:16.399Z,5.78
2022-11-03T07:06:45.164Z,5.90
2022-11-03T07:09:21.741Z,5.90
2022-11-03T07:11:55.222Z,5.80
2022-11-03T07:14:25.450Z,6.03
2022-11-03T07:17:04.900Z,6.43
2022-11-03T07:19:41.891Z,4.82
2022-11-03T07:22:15.096Z,5.22
2022-11-03T07:24:45.895Z,5.40
2022-11-03T07:27:12.905Z,5.63
2022-11-03T07:29:39.763Z,5.18
2022-11-03T07:32:18.938Z,5.45
2022-11-03T07:37:20.203Z,4.85
2022-11-03T07:39:47.588Z,4.85
2022-11-03T07:42:19.524Z,4.80
2022-11-03T07:44:46.616Z,5.22
2022-11-03T07:47:16.155Z,5.13
2022-11-03T07:49:42.933Z,6.00
2022-11-03T07:52:13.382Z,4.80
2022-11-03T07:54:40.430Z,5.63
2022-11-03T07:57:22.314Z,4.38
2022-11-03T07:59:58.497Z,4.78
2022-11-03T08:02:39.737Z,4.07
2022-11-03T08:05:06.995Z,3.88
2022-11-03T08:07:34.127Z,4.95
2022-11-03T08:10:00.826Z,4.35
2022-11-03T08:12:27.878Z,4.38
2022-11-03T08:14:54.648Z,3.95
2022-11-03T08:17:21.795Z,4.15
2022-11-03T08:19:48.568Z,3.90
2022-11-03T08:22:15.681Z,4.43
2022-11-03T08:24:42.404Z,3.40
2022-11-03T08:27:09.468Z,3.03
2022-11-03T08:29:36.273Z,2.55
2022-11-03T08:32:03.426Z,2.38
2022-11-03T08:34:30.140Z,2.20
2022-11-03T08:36:57.283Z,2.67
2022-11-03T08:39:24.055Z,2.13
2022-11-03T08:41:51.091Z,2.33
2022-11-03T08:44:17.813Z,2.17
2022-11-03T08:46:44.892Z,3.20
2022-11-03T08:49:11.619Z,1.45
2022-11-03T08:51:43.942Z,1.70
2022-11-03T08:54:11.288Z,2.10
2022-11-03T08:56:38.326Z,1.70
2022-11-03T08:59:05.070Z,2.10
2022-11-03T09:01:32.141Z,1.75
2022-11-03T09:03:59.046Z,1.50
2022-11-03T09:06:26.199Z,1.95
2022-11-03T09:11:40.073Z,2.20
2022-11-03T09:14:06.822Z,2.00
2022-11-03T09:16:33.653Z,2.38
2022-11-03T09:19:00.692Z,2.08
2022-11-03T09:21:27.453Z,2.42
2022-11-03T09:23:54.301Z,2.20
2022-11-03T09:26:21.841Z,2.03
2022-11-03T09:28:49.653Z,1.90
2022-11-03T09:31:17.319Z,2.17
2022-11-03T09:33:44.295Z,1.88
2022-11-03T09:36:11.549Z,2.00
2022-11-03T09:38:38.314Z,3.13
2022-11-03T09:41:13.657Z,4.28
2022-11-03T09:43:54.101Z,4.00
2022-11-03T09:46:21.240Z,24.77
2022-11-03T09:48:48.031Z,5.15
2022-11-03T09:51:20.754Z,3.70
2022-11-03T09:53:48.399Z,3.40
2022-11-03T09:56:21.574Z,3.47
2022-11-03T09:58:53.081Z,3.55
2022-11-03T10:01:22.384Z,4.20
2022-11-03T10:03:49.537Z,4.20
2022-11-03T10:06:17.678Z,5.35
2022-11-03T10:08:47.667Z,3.95
2022-11-03T10:11:15.722Z,4.38
2022-11-03T10:13:47.721Z,4.55
2022-11-03T10:16:23.320Z,4.72
2022-11-03T10:18:51.106Z,3.38
2022-11-03T10:21:23.583Z,2.78
2022-11-03T10:23:50.802Z,2.78
2022-11-03T10:26:19.741Z,2.90
2022-11-03T10:29:04.483Z,3.33
2022-11-03T10:31:32.659Z,3.20
2022-11-03T10:33:59.820Z,2.75
2022-11-03T10:36:29.906Z,3.35
2022-11-03T10:38:57.366Z,3.20
2022-11-03T10:41:29.828Z,2.60
2022-11-03T10:44:11.802Z,2.55
2022-11-03T10:46:55.830Z,2.60
2022-11-03T10:49:23.129Z,3.38
2022-11-03T10:51:52.767Z,3.20
2022-11-03T10:54:23.821Z,7.25
2022-11-03T10:56:52.418Z,4.68
2022-11-03T10:59:22.564Z,3.95
2022-11-03T11:01:49.841Z,4.30
2022-11-03T11:04:19.153Z,2.95
2022-11-03T11:06:46.877Z,2.78
2022-11-03T11:09:20.715Z,2.45
2022-11-03T11:12:15.503Z,3.22
2022-11-03T11:14:55.576Z,2.80
2022-11-03T11:17:37.651Z,2.92
2022-11-03T11:20:22.727Z,6.38
2022-11-03T11:22:50.844Z,2.78
2022-11-03T11:25:21.018Z,2.92
2022-11-03T11:27:58.246Z,4.47
2022-11-03T11:30:31.178Z,15.98
2022-11-03T11:33:13.579Z,4.03
2022-11-03T11:35:40.580Z,7.90
2022-11-03T11:38:44.955Z,10.80
2022-11-03T11:41:11.695Z,5.50
2022-11-03T11:43:38.795Z,3.35
2022-11-03T11:46:20.818Z,5.68
2022-11-03T11:48:57.068Z,3.08
2022-11-03T11:51:24.742Z,3.15
2022-11-03T11:54:09.946Z,2.35
2022-11-03T11:56:44.078Z,3.10
2022-11-03T11:59:37.640Z,2.58
2022-11-03T12:02:17.029Z,2.97
2022-11-03T12:04:47.185Z,3.13
2022-11-03T12:07:14.109Z,3.00
2022-11-03T12:09:41.894Z,2.60
2022-11-03T12:12:09.097Z,4.07
2022-11-03T12:14:39.769Z,2.72
2022-11-03T12:17:19.220Z,3.17
2022-11-03T12:19:51.102Z,5.18
2022-11-03T12:22:24.027Z,4.03
2022-11-03T12:24:57.722Z,5.00
2022-11-03T12:27:24.662Z,3.42
2022-11-03T12:29:52.211Z,7.43
2022-11-03T12:32:32.854Z,4.22
2022-11-03T12:35:06.013Z,4.32
2022-11-03T12:37:32.988Z,5.10
2022-11-03T12:39:59.830Z,3.00
2022-11-03T12:42:27.069Z,2.60
2022-11-03T12:44:53.952Z,2.50
2022-11-03T12:47:20.994Z,2.90
2022-11-03T12:49:48.872Z,5.55
2022-11-03T12:52:15.792Z,6.55
2022-11-03T12:54:42.917Z,2.35
2022-11-03T12:57:09.910Z,2.80
2022-11-03T12:59:37.143Z,2.75
2022-11-03T13:02:04.611Z,2.50
2022-11-03T13:04:31.919Z,3.10
2022-11-03T13:06:58.757Z,3.58
2022-11-03T13:09:26.132Z,3.88
2022-11-03T13:12:11.680Z,3.03
2022-11-03T13:14:38.761Z,2.85
2022-11-03T13:17:05.532Z,3.25
2022-11-03T13:19:32.647Z,5.63
2022-11-03T13:22:00.034Z,3.47
2022-11-03T13:24:27.153Z,4.00
2022-11-03T13:26:53.874Z,3.65
2022-11-03T13:29:20.919Z,3.30
2022-11-03T13:31:47.682Z,3.70
2022-11-03T13:34:14.739Z,4.10
2022-11-03T13:36:41.588Z,3.67
2022-11-03T13:39:08.610Z,3.47
2022-11-03T13:41:36.001Z,3.75
2022-11-03T13:44:02.990Z,3.90
2022-11-03T13:46:29.841Z,4.05
2022-11-03T13:51:43.591Z,5.10
2022-11-03T13:59:44.618Z,25.52
2022-11-03T14:04:59.452Z,25.83
2022-11-03T14:07:26.948Z,17.70
2022-11-03T14:09:55.867Z,20.25
2022-11-03T14:12:34.836Z,17.42
2022-11-03T14:15:07.502Z,22.38
2022-11-03T14:17:34.381Z,22.23
2022-11-03T14:20:04.456Z,20.65
2022-11-03T14:22:31.811Z,20.33
2022-11-03T14:24:59.389Z,23.20
2022-11-03T14:27:26.267Z,14.57
2022-11-03T14:29:53.474Z,8.48
2022-11-03T14:32:20.664Z,8.43
2022-11-03T14:34:48.366Z,12.43
2022-11-03T14:37:16.047Z,10.45
2022-11-03T14:39:43.378Z,16.52
2022-11-03T14:42:16.660Z,9.73
2022-11-03T14:44:45.753Z,18.08
2022-11-03T14:47:15.474Z,14.50
2022-11-03T14:49:42.209Z,20.15
2022-11-03T14:52:09.677Z,19.17
2022-11-03T14:54:36.715Z,16.35
2022-11-03T14:57:04.723Z,21.30
2022-11-03T14:59:32.037Z,30.35
2022-11-03T15:01:59.966Z,58.38
2022-11-03T15:04:27.128Z,58.45
2022-11-03T15:06:54.585Z,50.63
2022-11-03T15:09:21.537Z,70.63
2022-11-03T15:11:48.536Z,128.45
2022-11-03T15:14:15.581Z,166.13
2022-11-03T15:16:43.055Z,184.20
2022-11-03T15:19:09.849Z,198.43
2022-11-03T15:21:36.897Z,174.95
2022-11-03T15:26:50.898Z,175.07
2022-11-03T15:29:17.738Z,205.02
2022-11-03T15:31:47.835Z,343.98
2022-11-03T15:34:16.200Z,295.60
2022-11-03T15:36:43.463Z,357.38
2022-11-03T15:39:10.230Z,384.77
2022-11-03T15:41:37.287Z,284.38
2022-11-03T15:44:04.040Z,271.75
2022-11-03T15:46:31.132Z,275.85
2022-11-03T15:48:57.997Z,251.50
2022-11-03T15:51:25.421Z,185.30
2022-11-03T15:53:57.821Z,236.93
2022-11-03T15:56:27.045Z,212.35
2022-11-03T15:58:53.843Z,207.80
2022-11-03T16:01:21.578Z,195.75
2022-11-03T16:03:48.534Z,185.02
2022-11-03T16:06:16.010Z,197.17
2022-11-03T16:08:42.988Z,201.50
2022-11-03T16:11:09.784Z,177.47
2022-11-03T16:13:36.788Z,174.97
2022-11-03T16:16:03.669Z,191.27
2022-11-03T16:18:30.734Z,196.77
2022-11-03T16:20:57.463Z,200.77
2022-11-03T16:23:24.523Z,182.47
2022-11-03T16:25:51.251Z,219.53
2022-11-03T16:28:18.331Z,263.00
2022-11-03T16:30:49.720Z,246.10
2022-11-03T16:33:20.008Z,227.93
2022-11-03T16:35:46.772Z,245.73
2022-11-03T16:38:15.366Z,354.73
2022-11-03T16:40:42.770Z,261.98
2022-11-03T16:43:09.848Z,189.47
2022-11-03T16:45:38.202Z,146.37
2022-11-03T16:48:07.068Z,118.07
2022-11-03T16:50:34.558Z,107.60
2022-11-03T16:53:01.666Z,102.30
2022-11-03T16:55:28.451Z,142.93
2022-11-03T16:57:55.587Z,113.10
2022-11-03T17:00:24.157Z,118.47
2022-11-03T17:02:51.658Z,110.22
2022-11-03T17:05:20.887Z,110.83
2022-11-03T17:07:53.766Z,124.87
2022-11-03T17:10:21.723Z,113.93
2022-11-03T17:12:49.515Z,123.07
2022-11-03T17:15:17.397Z,124.70
2022-11-03T17:17:44.720Z,91.23
2022-11-03T17:20:12.341Z,159.60
2022-11-03T17:22:39.678Z,124.10
2022-11-03T17:25:09.545Z,137.67
2022-11-03T17:27:54.137Z,168.47
2022-11-03T17:30:22.119Z,164.43
2022-11-03T17:32:53.256Z,130.70
2022-11-03T17:35:25.792Z,134.60
2022-11-03T17:37:53.284Z,121.57
2022-11-03T17:40:22.996Z,135.73
2022-11-03T17:42:50.722Z,117.03
2022-11-03T17:45:20.187Z,117.17
2022-11-03T17:47:49.681Z,131.10
2022-11-03T17:52:46.578Z,100.67
2022-11-03T17:55:25.966Z,100.97
2022-11-03T17:57:54.736Z,96.57
2022-11-03T18:00:22.394Z,91.68
2022-11-03T18:02:50.721Z,105.37
2022-11-03T18:05:30.368Z,96.43
2022-11-03T18:07:59.470Z,88.70
2022-11-03T18:10:30.510Z,79.97
2022-11-03T18:13:17.228Z,80.30
2022-11-03T18:15:52.714Z,75.30
2022-11-03T18:18:22.292Z,85.70
2022-11-03T18:23:26.736Z,77.63
2022-11-03T18:25:53.832Z,73.27
2022-11-03T18:28:21.268Z,87.17
2022-11-03T18:30:51.284Z,88.57
2022-11-03T18:33:32.951Z,72.73
2022-11-03T18:36:02.851Z,67.73
2022-11-03T18:38:30.365Z,68.67
2022-11-03T18:40:57.181Z,64.80
2022-11-03T18:43:25.518Z,66.70
2022-11-03T18:45:52.979Z,67.73
2022-11-03T18:48:20.281Z,72.80
2022-11-03T18:50:49.909Z,67.57
2022-11-03T18:53:18.663Z,67.50
2022-11-03T18:55:45.594Z,67.03
2022-11-03T18:58:23.672Z,71.83
2022-11-03T19:00:53.716Z,71.80
2022-11-03T19:03:23.224Z,71.30
2022-11-03T19:08:27.149Z,72.23
2022-11-03T19:10:55.742Z,69.10
2022-11-03T19:13:29.842Z,63.50
2022-11-03T19:15:58.589Z,64.87
2022-11-03T19:18:27.479Z,65.05
2022-11-03T19:20:54.365Z,60.17
2022-11-03T19:23:21.409Z,66.73
2022-11-03T19:25:49.972Z,60.53
2022-11-03T19:28:20.630Z,63.78
2022-11-03T19:30:48.028Z,59.37
2022-11-03T19:35:48.933Z,53.60
2022-11-03T19:38:18.033Z,56.93
2022-11-03T19:41:04.941Z,58.15
2022-11-03T19:43:34.806Z,56.30
2022-11-03T19:46:02.526Z,55.13
2022-11-03T19:48:33.298Z,56.03
2022-11-03T19:51:00.233Z,57.23
2022-11-03T19:53:29.805Z,62.43
2022-11-03T19:55:57.159Z,59.03
2022-11-03T19:58:26.522Z,54.07
2022-11-03T20:00:54.171Z,62.95
2022-11-03T20:03:22.361Z,61.17
2022-11-03T20:05:53.571Z,62.67
2022-11-03T20:08:23.446Z,64.40
2022-11-03T20:10:50.478Z,63.00
2022-11-03T20:13:23.381Z,57.77
2022-11-03T20:15:57.258Z,55.37
2022-11-03T20:18:27.600Z,61.27
2022-11-03T20:20:54.379Z,59.07
2022-11-03T20:23:29.785Z,58.00
2022-11-03T20:25:56.913Z,57.67
2022-11-03T20:28:27.641Z,59.97
2022-11-03T20:30:55.762Z,64.77
2022-11-03T20:33:24.463Z,72.37
2022-11-03T20:35:53.395Z,63.70
2022-11-03T20:38:21.303Z,68.55
2022-11-03T20:40:51.399Z,63.90
2022-11-03T20:43:28.293Z,63.23
2022-11-03T20:45:55.731Z,56.53
2022-11-03T20:48:23.642Z,63.93
2022-11-03T20:50:51.498Z,60.57
2022-11-03T20:53:21.325Z,54.50
2022-11-03T20:55:48.887Z,61.07
2022-11-03T20:58:17.923Z,56.73
2022-11-03T21:00:47.479Z,54.13
2022-11-03T21:03:44.960Z,61.40
2022-11-03T21:06:08.817Z,58.67
2022-11-03T21:08:35.558Z,61.50
2022-11-03T21:11:23.310Z,55.20
2022-11-03T21:14:22.053Z,52.23
2022-11-03T21:19:53.773Z,52.30
2022-11-03T21:22:51.424Z,49.10
2022-11-03T21:25:17.726Z,49.33
2022-11-03T21:27:45.287Z,49.90
2022-11-03T21:30:14.173Z,55.27
